createdAt,value
2023-04-15T00:00:07.526Z,93919.69
2023-04-15T00:03:09.873Z,93926.25
2023-04-15T00:06:12.626Z,93923.31
2023-04-15T00:09:14.586Z,93911.38
2023-04-15T00:12:16.421Z,93919.75
2023-04-15T00:15:18.446Z,93918.28
2023-04-15T00:18:20.385Z,93920.38
2023-04-15T00:21:22.187Z,93912.06
2023-04-15T00:24:24.267Z,93916.47
2023-04-15T00:27:26.191Z,93922.69
2023-04-15T00:30:28.169Z,93919.75
2023-04-15T00:33:30.105Z,93926.44
2023-04-15T00:36:33.897Z,93930.53
2023-04-15T00:39:35.942Z,93919.53
2023-04-15T00:42:38.200Z,93919.00
2023-04-15T00:45:40.059Z,93924.88
2023-04-15T00:48:42.461Z,93926.16
2023-04-15T00:51:44.860Z,93918.69
2023-04-15T00:54:46.788Z,93933.22
2023-04-15T00:57:48.714Z,93927.28
2023-04-15T01:00:54.439Z,93925.34
2023-04-15T01:04:00.431Z,93936.78
2023-04-15T01:07:02.626Z,93928.53
2023-04-15T01:10:04.999Z,93929.63
2023-04-15T01:13:06.999Z,93937.31
2023-04-15T01:16:09.798Z,93937.28
2023-04-15T01:19:12.213Z,93930.88
2023-04-15T01:22:14.556Z,93931.09
2023-04-15T01:25:20.724Z,93931.75
2023-04-15T01:28:22.845Z,93930.28
2023-04-15T01:31:24.833Z,93935.19
2023-04-15T01:34:27.117Z,93934.84
2023-04-15T01:37:29.757Z,93926.16
2023-04-15T01:40:31.687Z,93931.16
2023-04-15T01:43:37.468Z,93922.06
2023-04-15T01:46:39.376Z,93924.34
2023-04-15T01:49:41.964Z,93913.63
2023-04-15T01:52:43.983Z,93920.34
2023-04-15T01:55:45.771Z,93922.44
2023-04-15T01:58:47.781Z,93928.31
2023-04-15T02:01:50.245Z,93912.59
2023-04-15T02:04:52.144Z,93920.09
2023-04-15T02:07:54.516Z,93920.44
2023-04-15T02:10:56.774Z,93921.78
2023-04-15T02:13:58.694Z,93926.69
2023-04-15T02:17:07.179Z,93918.16
2023-04-15T02:20:09.881Z,93911.63
2023-04-15T02:23:11.799Z,93920.78
2023-04-15T02:26:14.012Z,93911.28
2023-04-15T02:29:15.888Z,93914.56
2023-04-15T02:32:18.693Z,93906.88
2023-04-15T02:35:21.076Z,93916.53
2023-04-15T02:38:23.095Z,93904.75
2023-04-15T02:41:27.794Z,93906.56
2023-04-15T02:44:29.634Z,93909.31
2023-04-15T02:47:31.544Z,93901.03
2023-04-15T02:50:33.557Z,93910.69
2023-04-15T02:53:36.249Z,93902.53
2023-04-15T02:56:38.115Z,93896.31
2023-04-15T02:59:40.378Z,93896.94
2023-04-15T03:02:43.199Z,93908.06
2023-04-15T03:05:45.374Z,93895.13
2023-04-15T03:08:47.271Z,93897.25
2023-04-15T03:11:49.476Z,93902.50
2023-04-15T03:14:51.404Z,93897.53
2023-04-15T03:17:53.365Z,93901.97
2023-04-15T03:20:55.389Z,93901.66
2023-04-15T03:23:57.692Z,93903.13
2023-04-15T03:26:59.627Z,93905.69
2023-04-15T03:30:01.722Z,93902.41
2023-04-15T03:33:03.647Z,93898.81
2023-04-15T03:36:06.079Z,93912.56
2023-04-15T03:39:08.149Z,93907.78
2023-04-15T03:42:10.016Z,93910.56
2023-04-15T03:45:12.047Z,93907.31
2023-04-15T03:48:17.616Z,93906.34
2023-04-15T03:51:19.912Z,93911.44
2023-04-15T03:54:21.943Z,93910.69
2023-04-15T03:57:23.817Z,93918.09
2023-04-15T04:00:25.708Z,93923.88
2023-04-15T04:03:27.931Z,93916.03
2023-04-15T04:06:29.972Z,93911.69
2023-04-15T04:09:32.065Z,93925.28
2023-04-15T04:12:34.014Z,93929.38
2023-04-15T04:15:36.374Z,93926.31
2023-04-15T04:18:39.017Z,93931.41
2023-04-15T04:21:41.067Z,93924.53
2023-04-15T04:24:42.947Z,93935.06
2023-04-15T04:27:45.767Z,93923.13
2023-04-15T04:30:47.757Z,93931.50
2023-04-15T04:33:49.537Z,93926.56
2023-04-15T04:36:51.632Z,93925.22
2023-04-15T04:39:53.499Z,93923.47
2023-04-15T04:42:55.514Z,93921.75
2023-04-15T04:45:57.527Z,93935.59
2023-04-15T04:48:59.549Z,93931.25
2023-04-15T04:52:01.751Z,93935.78
2023-04-15T04:55:03.740Z,93939.13
2023-04-15T04:58:05.755Z,93943.53
2023-04-15T05:01:07.948Z,93948.19
2023-04-15T05:04:09.966Z,93956.88
2023-04-15T05:07:12.198Z,93943.63
2023-04-15T05:10:15.399Z,93940.66
2023-04-15T05:13:17.245Z,93938.38
2023-04-15T05:16:20.084Z,93951.06
2023-04-15T05:19:22.184Z,93947.13
2023-04-15T05:22:24.027Z,93943.25
2023-04-15T05:25:26.154Z,93942.97
2023-04-15T05:28:28.233Z,93939.09
2023-04-15T05:31:30.376Z,93938.47
2023-04-15T05:34:32.387Z,93947.91
2023-04-15T05:37:34.213Z,93949.88
2023-04-15T05:40:36.892Z,93953.97
2023-04-15T05:43:39.556Z,93943.50
2023-04-15T05:46:41.804Z,93943.38
2023-04-15T05:49:43.668Z,93945.81
2023-04-15T05:52:46.175Z,93947.19
2023-04-15T05:55:47.997Z,93941.34
2023-04-15T05:58:50.982Z,93957.28
2023-04-15T06:01:54.410Z,93946.75
2023-04-15T06:04:56.247Z,93951.31
2023-04-15T06:07:58.080Z,93943.81
2023-04-15T06:11:00.157Z,93943.31
2023-04-15T06:14:02.183Z,93949.72
2023-04-15T06:17:04.212Z,93949.38
2023-04-15T06:20:06.570Z,93960.47
2023-04-15T06:23:08.452Z,93964.25
2023-04-15T06:26:10.357Z,93969.41
2023-04-15T06:29:13.517Z,93972.53
2023-04-15T06:32:16.312Z,93982.75
2023-04-15T06:35:18.455Z,93984.63
2023-04-15T06:38:20.498Z,93980.75
2023-04-15T06:41:22.773Z,93995.06
2023-04-15T06:44:24.702Z,93988.41
2023-04-15T06:47:26.792Z,93993.28
2023-04-15T06:50:28.749Z,93992.09
2023-04-15T06:53:30.684Z,94004.13
2023-04-15T06:56:33.950Z,93997.25
2023-04-15T06:59:36.202Z,94001.81
2023-04-15T07:02:38.484Z,94005.34
2023-04-15T07:05:40.678Z,94020.38
2023-04-15T07:08:42.945Z,94019.53
2023-04-15T07:11:45.757Z,94022.84
2023-04-15T07:14:47.908Z,94029.19
2023-04-15T07:17:50.041Z,94023.97
2023-04-15T07:20:52.204Z,94039.94
2023-04-15T07:23:54.110Z,94029.47
2023-04-15T07:27:00.845Z,94034.78
2023-04-15T07:30:03.545Z,94029.16
2023-04-15T07:33:05.720Z,94035.81
2023-04-15T07:36:07.952Z,94033.53
2023-04-15T07:39:10.204Z,94033.97
2023-04-15T07:42:12.091Z,94032.97
2023-04-15T07:45:14.036Z,94045.22
2023-04-15T07:48:16.038Z,94049.03
2023-04-15T07:51:17.988Z,94047.97
2023-04-15T07:54:20.042Z,94044.88
2023-04-15T07:57:21.988Z,94039.34
2023-04-15T08:00:23.965Z,94049.59
2023-04-15T08:03:26.393Z,94054.75
2023-04-15T08:06:28.954Z,94057.13
2023-04-15T08:09:30.866Z,94062.63
2023-04-15T08:12:33.080Z,94059.03
2023-04-15T08:15:35.091Z,94053.88
2023-04-15T08:18:38.180Z,94054.56
2023-04-15T08:21:41.113Z,94048.84
2023-04-15T08:24:43.381Z,94044.34
2023-04-15T08:27:45.847Z,94042.06
2023-04-15T08:30:48.177Z,94045.63
2023-04-15T08:33:52.562Z,94049.03
2023-04-15T08:36:54.369Z,94043.03
2023-04-15T08:39:56.366Z,94049.09
2023-04-15T08:43:01.297Z,94053.47
2023-04-15T08:46:05.222Z,94048.59
2023-04-15T08:49:10.957Z,94050.00
2023-04-15T08:52:13.150Z,94039.44
2023-04-15T08:55:16.145Z,94050.19
2023-04-15T08:58:20.174Z,94047.28
2023-04-15T09:01:23.198Z,94052.41
2023-04-15T09:04:25.465Z,94039.47
2023-04-15T09:07:27.714Z,94035.31
2023-04-15T09:10:30.952Z,94043.34
2023-04-15T09:13:33.021Z,94035.28
2023-04-15T09:17:03.995Z,94039.78
2023-04-15T09:20:09.854Z,94050.19
2023-04-15T09:23:14.210Z,94048.88
2023-04-15T09:26:17.092Z,94045.47
2023-04-15T09:29:19.304Z,94038.50
2023-04-15T09:32:23.649Z,94055.75
2023-04-15T09:35:27.529Z,94051.75
2023-04-15T09:38:29.684Z,94044.47
2023-04-15T09:41:31.509Z,94041.50
2023-04-15T09:44:39.073Z,94051.22
2023-04-15T09:47:51.250Z,94050.47
2023-04-15T09:50:54.098Z,94060.59
2023-04-15T09:53:56.725Z,94046.72
2023-04-15T09:57:10.208Z,94045.38
2023-04-15T10:00:12.972Z,94036.88
2023-04-15T10:03:22.817Z,94037.97
2023-04-15T10:06:27.004Z,94048.75
2023-04-15T10:09:29.428Z,94050.00
2023-04-15T10:12:31.860Z,94047.50
2023-04-15T10:15:34.507Z,94046.69
2023-04-15T10:18:39.865Z,94055.78
2023-04-15T10:21:42.033Z,94048.44
2023-04-15T10:24:45.440Z,94048.19
2023-04-15T10:27:48.768Z,94042.50
2023-04-15T10:30:51.070Z,94046.16
2023-04-15T10:33:53.732Z,94036.03
2023-04-15T10:36:57.945Z,94026.44
2023-04-15T10:39:59.859Z,94040.69
2023-04-15T10:43:03.079Z,94025.16
2023-04-15T10:46:07.857Z,94042.41
2023-04-15T10:49:24.295Z,94034.97
2023-04-15T10:52:28.463Z,94031.91
2023-04-15T10:55:34.652Z,94037.75
2023-04-15T10:58:44.187Z,94042.75
2023-04-15T11:02:01.177Z,94064.72
2023-04-15T11:05:03.971Z,94080.75
2023-04-15T11:08:05.917Z,94106.47
2023-04-15T11:11:07.888Z,94121.66
2023-04-15T11:14:16.247Z,94145.59
2023-04-15T11:17:28.878Z,94162.63
2023-04-15T11:20:32.885Z,94172.75
2023-04-15T11:23:44.217Z,94180.88
2023-04-15T11:26:46.136Z,94183.28
2023-04-15T11:29:48.068Z,94168.53
2023-04-15T11:32:54.619Z,94161.50
2023-04-15T11:35:56.516Z,94155.84
2023-04-15T11:38:59.749Z,94161.66
2023-04-15T11:42:01.903Z,94147.75
2023-04-15T11:45:11.647Z,94147.31
2023-04-15T11:48:14.176Z,94154.91
2023-04-15T11:51:16.661Z,94146.06
2023-04-15T11:54:21.696Z,94133.00
2023-04-15T11:57:31.894Z,94120.44
2023-04-15T12:00:34.776Z,94120.63
2023-04-15T12:03:43.964Z,94116.00
2023-04-15T12:06:46.348Z,94087.03
2023-04-15T12:09:56.743Z,94086.88
2023-04-15T12:12:58.687Z,94086.72
2023-04-15T12:16:00.618Z,94086.00
2023-04-15T12:19:09.625Z,94087.09
2023-04-15T12:22:14.027Z,94098.03
2023-04-15T12:25:16.112Z,94094.47
2023-04-15T12:28:17.925Z,94084.25
2023-04-15T12:31:20.105Z,94085.91
2023-04-15T12:34:43.553Z,94084.69
2023-04-15T12:37:45.451Z,94092.44
2023-04-15T12:40:47.396Z,94098.13
2023-04-15T12:43:49.814Z,94104.28
2023-04-15T12:46:53.600Z,94110.38
2023-04-15T12:49:55.516Z,94110.19
2023-04-15T12:52:57.963Z,94110.47
2023-04-15T12:56:00.168Z,94127.94
2023-04-15T12:59:02.238Z,94129.16
2023-04-15T13:02:04.450Z,94134.09
2023-04-15T13:05:06.895Z,94127.25
2023-04-15T13:08:08.792Z,94136.72
2023-04-15T13:11:10.689Z,94134.31
2023-04-15T13:14:13.188Z,94135.84
2023-04-15T13:17:15.640Z,94139.66
2023-04-15T13:20:17.763Z,94133.88
2023-04-15T13:23:19.642Z,94138.56
2023-04-15T13:26:21.887Z,94131.69
2023-04-15T13:29:23.906Z,94132.56
2023-04-15T13:32:26.329Z,94139.03
2023-04-15T13:35:28.186Z,94148.78
2023-04-15T13:38:30.404Z,94149.44
2023-04-15T13:41:32.341Z,94140.94
2023-04-15T13:44:34.127Z,94151.84
2023-04-15T13:47:36.103Z,94159.47
2023-04-15T13:50:39.560Z,94171.13
2023-04-15T13:53:42.446Z,94184.34
2023-04-15T13:56:44.406Z,94194.03
2023-04-15T13:59:46.285Z,94178.00
2023-04-15T14:02:48.956Z,94182.03
2023-04-15T14:05:55.959Z,94185.28
2023-04-15T14:08:57.862Z,94177.84
2023-04-15T14:12:00.408Z,94192.72
2023-04-15T14:15:02.457Z,94197.13
2023-04-15T14:18:05.375Z,94204.09
2023-04-15T14:21:07.446Z,94204.56
2023-04-15T14:24:09.847Z,94207.81
2023-04-15T14:27:12.618Z,94214.81
2023-04-15T14:30:15.213Z,94212.81
2023-04-15T14:33:17.418Z,94219.09
2023-04-15T14:36:19.425Z,94217.84
2023-04-15T14:39:21.488Z,94230.16
2023-04-15T14:42:23.307Z,94225.44
2023-04-15T14:45:25.212Z,94207.94
2023-04-15T14:48:27.308Z,94211.81
2023-04-15T14:51:29.447Z,94207.88
2023-04-15T14:54:31.559Z,94197.97
2023-04-15T14:57:33.489Z,94190.84
2023-04-15T15:00:36.235Z,94188.47
2023-04-15T15:03:39.244Z,94200.38
2023-04-15T15:06:42.009Z,94202.66
2023-04-15T15:09:43.906Z,94201.47
2023-04-15T15:12:45.772Z,94199.19
2023-04-15T15:15:49.693Z,94205.44
2023-04-15T15:18:51.833Z,94199.44
2023-04-15T15:21:53.859Z,94204.19
2023-04-15T15:24:59.147Z,94205.78
2023-04-15T15:28:00.969Z,94211.16
2023-04-15T15:31:02.936Z,94210.53
2023-04-15T15:34:04.804Z,94213.16
2023-04-15T15:37:06.641Z,94215.53
2023-04-15T15:40:08.959Z,94213.06
2023-04-15T15:43:11.016Z,94218.81
2023-04-15T15:46:13.018Z,94222.22
2023-04-15T15:49:15.569Z,94223.31
2023-04-15T15:52:17.488Z,94221.81
2023-04-15T15:55:19.394Z,94231.31
2023-04-15T15:58:21.404Z,94239.78
2023-04-15T16:01:23.511Z,94240.06
2023-04-15T16:04:26.157Z,94246.53
2023-04-15T16:07:28.255Z,94239.44
2023-04-15T16:10:30.540Z,94240.53
2023-04-15T16:13:32.477Z,94241.09
2023-04-15T16:16:34.374Z,94238.81
2023-04-15T16:19:36.364Z,94249.28
2023-04-15T16:22:39.236Z,94257.63
2023-04-15T16:25:44.794Z,94264.34
2023-04-15T16:28:46.899Z,94262.97
2023-04-15T16:31:49.154Z,94262.31
2023-04-15T16:34:52.661Z,94265.72
2023-04-15T16:37:54.590Z,94268.16
2023-04-15T16:40:59.669Z,94267.78
2023-04-15T16:44:03.247Z,94266.47
2023-04-15T16:47:05.694Z,94287.31
2023-04-15T16:50:09.973Z,94283.09
2023-04-15T16:53:12.326Z,94274.63
2023-04-15T16:56:14.155Z,94281.44
2023-04-15T16:59:16.539Z,94280.94
2023-04-15T17:02:18.660Z,94293.00
2023-04-15T17:05:21.080Z,94289.31
2023-04-15T17:08:23.390Z,94285.63
2023-04-15T17:11:26.158Z,94293.84
2023-04-15T17:14:31.547Z,94297.88
2023-04-15T17:17:33.409Z,94301.19
2023-04-15T17:20:35.536Z,94301.88
2023-04-15T17:23:37.418Z,94299.78
2023-04-15T17:26:39.546Z,94302.53
2023-04-15T17:29:41.692Z,94309.16
2023-04-15T17:32:43.994Z,94316.38
2023-04-15T17:35:46.138Z,94318.25
2023-04-15T17:38:48.400Z,94320.56
2023-04-15T17:41:50.534Z,94332.22
2023-04-15T17:44:52.734Z,94327.00
2023-04-15T17:47:54.942Z,94340.81
2023-04-15T17:50:57.162Z,94341.78
2023-04-15T17:53:59.512Z,94345.38
2023-04-15T17:57:03.270Z,94360.31
2023-04-15T18:00:06.996Z,94357.03
2023-04-15T18:03:09.192Z,94365.28
2023-04-15T18:06:11.748Z,94369.19
2023-04-15T18:09:13.932Z,94375.44
2023-04-15T18:12:16.082Z,94379.53
2023-04-15T18:15:18.707Z,94380.03
2023-04-15T18:18:20.930Z,94377.19
2023-04-15T18:21:23.117Z,94388.03
2023-04-15T18:24:25.354Z,94393.09
2023-04-15T18:27:27.661Z,94393.91
2023-04-15T18:30:29.717Z,94394.03
2023-04-15T18:33:32.406Z,94404.66
2023-04-15T18:36:34.540Z,94406.44
2023-04-15T18:39:36.687Z,94407.69
2023-04-15T18:42:39.026Z,94425.25
2023-04-15T18:45:42.722Z,94414.59
2023-04-15T18:48:44.993Z,94420.78
2023-04-15T18:51:47.142Z,94427.31
2023-04-15T18:54:49.316Z,94443.59
2023-04-15T18:57:51.811Z,94441.91
2023-04-15T19:00:54.492Z,94431.72
2023-04-15T19:03:56.642Z,94441.81
2023-04-15T19:07:01.566Z,94443.25
2023-04-15T19:10:05.894Z,94447.00
2023-04-15T19:13:08.160Z,94444.69
2023-04-15T19:16:10.462Z,94455.47
2023-04-15T19:19:14.651Z,94459.09
2023-04-15T19:22:17.105Z,94458.00
2023-04-15T19:25:19.316Z,94464.25
2023-04-15T19:28:21.499Z,94460.97
2023-04-15T19:31:23.723Z,94471.16
2023-04-15T19:34:25.943Z,94472.19
2023-04-15T19:37:28.172Z,94468.69
2023-04-15T19:40:30.922Z,94482.59
2023-04-15T19:43:35.664Z,94468.56
2023-04-15T19:46:38.112Z,94485.72
2023-04-15T19:49:40.803Z,94484.13
2023-04-15T19:52:42.961Z,94486.94
2023-04-15T19:55:45.780Z,94489.50
2023-04-15T19:58:52.728Z,94486.75
2023-04-15T20:01:55.022Z,94491.38
2023-04-15T20:04:57.018Z,94498.75
2023-04-15T20:08:01.489Z,94489.53
2023-04-15T20:11:05.617Z,94489.06
2023-04-15T20:14:07.861Z,94496.75
2023-04-15T20:17:09.956Z,94501.50
2023-04-15T20:20:12.823Z,94500.84
2023-04-15T20:23:14.960Z,94505.91
2023-04-15T20:26:18.185Z,94504.88
2023-04-15T20:29:20.869Z,94504.94
2023-04-15T20:32:24.328Z,94498.03
2023-04-15T20:35:28.313Z,94507.66
2023-04-15T20:38:30.530Z,94510.28
2023-04-15T20:41:32.821Z,94513.19
2023-04-15T20:44:34.869Z,94519.84
2023-04-15T20:47:37.036Z,94534.97
2023-04-15T20:50:39.505Z,94524.53
2023-04-15T20:53:42.165Z,94531.66
2023-04-15T20:56:44.360Z,94539.56
2023-04-15T20:59:46.648Z,94543.97
2023-04-15T21:02:48.868Z,94543.59
2023-04-15T21:05:53.847Z,94542.28
2023-04-15T21:08:57.998Z,94548.09
2023-04-15T21:12:02.005Z,94555.09
2023-04-15T21:15:07.883Z,94550.81
2023-04-15T21:18:11.039Z,94563.22
2023-04-15T21:21:12.943Z,94561.56
2023-04-15T21:24:14.989Z,94568.09
2023-04-15T21:27:16.882Z,94562.91
2023-04-15T21:30:23.769Z,94568.22
2023-04-15T21:33:26.296Z,94578.88
2023-04-15T21:36:28.127Z,94578.78
2023-04-15T21:39:39.032Z,94581.69
2023-04-15T21:42:41.748Z,94571.75
2023-04-15T21:46:21.049Z,94580.56
2023-04-15T21:49:09.420Z,94576.41
2023-04-15T21:52:11.275Z,94588.06
2023-04-15T21:55:13.334Z,94591.44
2023-04-15T21:58:15.449Z,94604.69
2023-04-15T22:01:17.700Z,94584.59
2023-04-15T22:04:20.250Z,94598.06
2023-04-15T22:07:22.861Z,94604.38
2023-04-15T22:10:24.957Z,94586.50
2023-04-15T22:13:27.129Z,94591.91
2023-04-15T22:16:29.044Z,94591.69
2023-04-15T22:19:31.225Z,94590.97
2023-04-15T22:22:43.305Z,94591.88
2023-04-15T22:25:47.386Z,94598.53
2023-04-15T22:28:49.547Z,94600.88
2023-04-15T22:31:52.347Z,94610.00
2023-04-15T22:34:54.472Z,94617.91
2023-04-15T22:37:57.348Z,94609.25
2023-04-15T22:41:15.646Z,94618.38
2023-04-15T22:44:17.876Z,94603.03
2023-04-15T22:47:19.958Z,94615.28
2023-04-15T22:50:22.067Z,94622.44
2023-04-15T22:53:23.914Z,94613.81
2023-04-15T22:56:26.039Z,94619.47
2023-04-15T22:59:27.942Z,94621.31
2023-04-15T23:02:30.060Z,94612.53
2023-04-15T23:05:32.223Z,94613.44
2023-04-15T23:08:34.391Z,94601.00
2023-04-15T23:11:36.425Z,94607.13
2023-04-15T23:14:38.478Z,94606.97
2023-04-15T23:17:42.689Z,94614.06
2023-04-15T23:20:45.929Z,94601.47
2023-04-15T23:23:47.865Z,94614.19
2023-04-15T23:26:49.856Z,94618.06
2023-04-15T23:29:51.978Z,94618.63
2023-04-15T23:32:53.929Z,94626.31
2023-04-15T23:35:55.922Z,94622.91
2023-04-15T23:38:58.409Z,94620.75
2023-04-15T23:42:00.583Z,94616.78
2023-04-15T23:45:02.761Z,94607.44
2023-04-15T23:48:06.262Z,94620.06
2023-04-15T23:51:08.437Z,94614.84
2023-04-15T23:54:10.577Z,94621.13
2023-04-15T23:57:13.555Z,94626.13
